Time,TemperatureF,DewpointF,PressureIn,WindDirection,WindDirectionDegrees,WindSpeedMPH,WindSpeedGustMPH,Humidity,HourlyPrecipIn,Conditions,Clouds,dailyrainin,SoftwareType,DateUTC
2013-10-30 00:01:00,32.5,24.8,30.34,NNE,22,0.0,0.0,73,0.00,,,0.00,WUHU21623XXSP,2013-10-30 04:01:00,
2013-10-30 00:06:00,32.5,25.1,30.34,NNE,22,0.0,0.0,74,0.00,,,0.00,WUHU21623XXSP,2013-10-30 04:06:00,
2013-10-30 00:11:00,32.5,25.1,30.34,NNE,22,0.0,0.0,74,0.00,,,0.00,WUHU21623XXSP,2013-10-30 04:11:00,
2013-10-30 00:16:00,32.7,25.3,30.34,NNE,22,0.0,0.0,74,0.00,,,0.00,WUHU21623XXSP,2013-10-30 04:16:00,
2013-10-30 00:21:00,32.7,25.3,30.34,NNE,22,0.0,0.0,74,0.00,,,0.00,WUHU21623XXSP,2013-10-30 04:21:00,
2013-10-30 00:26:00,32.7,25.3,30.33,NNE,22,0.0,0.0,74,0.00,,,0.00,WUHU21623XXSP,2013-10-30 04:26:00,
2013-10-30 00:31:00,32.7,25.3,30.33,NNE,22,0.0,0.0,74,0.00,,,0.00,WUHU21623XXSP,2013-10-30 04:31:00,
2013-10-30 00:36:00,32.7,25.3,30.33,NNE,22,0.0,0.0,74,0.00,,,0.00,WUHU21623XXSP,2013-10-30 04:36:00,
2013-10-30 00:41:00,32.7,25.3,30.33,NNE,22,0.0,0.0,74,0.00,,,0.00,WUHU21623XXSP,2013-10-30 04:41:00,
2013-10-30 00:46:00,32.7,25.3,30.33,NNE,22,0.0,0.0,74,0.00,,,0.00,WUHU21623XXSP,2013-10-30 04:46:00,
2013-10-30 00:51:00,32.7,25.3,30.33,NNE,22,0.0,0.0,74,0.00,,,0.00,WUHU21623XXSP,2013-10-30 04:51:00,
2013-10-30 00:56:00,32.7,25.3,30.32,NNE,22,0.0,0.0,74,0.00,,,0.00,WUHU21623XXSP,2013-10-30 04:56:00,
2013-10-30 01:01:00,32.7,25.6,30.32,NNE,22,0.0,0.0,75,0.00,,,0.00,WUHU21623XXSP,2013-10-30 05:01:00,
2013-10-30 01:06:00,32.7,25.6,30.32,NNE,22,0.0,0.0,75,0.00,,,0.00,WUHU21623XXSP,2013-10-30 05:06:00,
2013-10-30 01:11:00,32.9,25.8,30.32,NNE,22,0.0,0.0,75,0.00,,,0.00,WUHU21623XXSP,2013-10-30 05:11:00,
2013-10-30 01:16:00,33.1,26.0,30.32,NNE,22,0.0,0.0,75,0.00,,,0.00,WUHU21623XXSP,2013-10-30 05:16:00,
2013-10-30 01:21:00,33.1,26.0,30.31,NNE,22,0.0,0.0,75,0.00,,,0.00,WUHU21623XXSP,2013-10-30 05:21:00,
2013-10-30 01:26:00,33.1,26.0,30.31,NNE,22,0.0,0.0,75,0.00,,,0.00,WUHU21623XXSP,2013-10-30 05:26:00,
2013-10-30 01:31:00,33.1,26.0,30.31,NNE,22,0.0,0.0,75,0.00,,,0.00,WUHU21623XXSP,2013-10-30 05:31:00,
2013-10-30 01:36:00,33.1,26.0,30.31,NNE,22,0.0,0.0,75,0.00,,,0.00,WUHU21623XXSP,2013-10-30 05:36:00,
2013-10-30 01:41:00,33.1,26.0,30.30,NNE,22,0.0,0.0,75,0.00,,,0.00,WUHU21623XXSP,2013-10-30 05:41:00,
2013-10-30 01:46:00,33.4,26.6,30.31,NNE,22,0.0,0.0,76,0.00,,,0.00,WUHU21623XXSP,2013-10-30 05:46:00,
2013-10-30 01:51:00,33.4,26.6,30.31,NNE,22,0.0,0.0,76,0.00,,,0.00,WUHU21623XXSP,2013-10-30 05:51:00,
2013-10-30 01:56:00,33.6,26.8,30.30,NNE,22,0.0,0.0,76,0.00,,,0.00,WUHU21623XXSP,2013-10-30 05:56:00,
2013-10-30 02:01:00,33.6,26.8,30.31,NNE,22,0.0,0.0,76,0.00,,,0.00,WUHU21623XXSP,2013-10-30 06:01:00,
2013-10-30 02:06:00,33.6,26.8,30.30,NNE,22,0.0,0.0,76,0.00,,,0.00,WUHU21623XXSP,2013-10-30 06:06:00,
2013-10-30 02:11:00,33.6,26.8,30.30,NNE,22,0.0,0.0,76,0.00,,,0.00,WUHU21623XXSP,2013-10-30 06:11:00,
2013-10-30 02:16:00,33.8,26.9,30.30,NNE,22,0.0,0.0,76,0.00,,,0.00,WUHU21623XXSP,2013-10-30 06:16:00,
2013-10-30 02:21:00,34.0,27.1,30.30,NNE,22,0.0,0.0,76,0.00,,,0.00,WUHU21623XXSP,2013-10-30 06:21:00,
2013-10-30 02:26:00,34.0,27.1,30.30,NNE,22,0.0,0.0,76,0.00,,,0.00,WUHU21623XXSP,2013-10-30 06:26:00,
2013-10-30 02:31:00,34.0,27.1,30.30,NNE,22,0.0,0.0,76,0.00,,,0.00,WUHU21623XXSP,2013-10-30 06:31:00,
2013-10-30 02:36:00,34.2,27.3,30.30,NNE,22,0.0,0.0,76,0.00,,,0.00,WUHU21623XXSP,2013-10-30 06:36:00,
2013-10-30 02:41:00,34.2,27.3,30.30,NNE,22,0.0,0.0,76,0.00,,,0.00,WUHU21623XXSP,2013-10-30 06:41:00,
2013-10-30 02:46:00,34.3,27.8,30.30,NNE,22,0.0,0.0,77,0.00,,,0.00,WUHU21623XXSP,2013-10-30 06:46:00,
2013-10-30 02:51:00,34.5,27.8,30.29,NNE,22,0.0,0.0,77,0.00,,,0.00,WUHU21623XXSP,2013-10-30 06:51:00,
2013-10-30 02:56:00,34.5,28.0,30.29,NNE,22,0.0,0.0,77,0.00,,,0.00,WUHU21623XXSP,2013-10-30 06:56:00,
2013-10-30 03:01:00,34.9,28.1,30.29,NNE,22,0.0,0.0,77,0.00,,,0.00,WUHU21623XXSP,2013-10-30 07:01:00,
2013-10-30 03:06:00,34.9,28.3,30.29,NNE,22,0.0,0.0,77,0.00,,,0.00,WUHU21623XXSP,2013-10-30 07:06:00,
2013-10-30 03:11:00,34.9,28.3,30.29,NNE,22,0.0,0.0,77,0.00,,,0.00,WUHU21623XXSP,2013-10-30 07:11:00,
2013-10-30 03:16:00,35.2,28.7,30.29,NNE,22,0.0,0.0,77,0.00,,,0.00,WUHU21623XXSP,2013-10-30 07:16:00,
2013-10-30 03:21:00,35.2,28.7,30.29,NNE,22,0.0,0.0,77,0.00,,,0.00,WUHU21623XXSP,2013-10-30 07:21:00,
2013-10-30 03:26:00,35.2,28.7,30.29,NNE,22,0.0,0.0,77,0.00,,,0.00,WUHU21623XXSP,2013-10-30 07:26:00,
2013-10-30 03:31:00,35.4,28.9,30.29,NNE,22,0.0,0.0,77,0.00,,,0.00,WUHU21623XXSP,2013-10-30 07:31:00,
2013-10-30 03:36:00,35.4,28.9,30.29,NNE,22,0.0,0.0,77,0.00,,,0.00,WUHU21623XXSP,2013-10-30 07:36:00,
2013-10-30 03:41:00,35.4,28.9,30.28,NNE,22,0.0,0.0,77,0.00,,,0.00,WUHU21623XXSP,2013-10-30 07:41:00,
2013-10-30 03:46:00,35.4,28.9,30.28,NNE,22,0.0,0.0,77,0.00,,,0.00,WUHU21623XXSP,2013-10-30 07:46:00,
2013-10-30 03:51:00,35.4,28.9,30.28,NNE,22,0.0,0.0,77,0.00,,,0.00,WUHU21623XXSP,2013-10-30 07:51:00,
2013-10-30 03:56:00,35.6,29.0,30.28,NNE,22,0.0,0.0,77,0.00,,,0.00,WUHU21623XXSP,2013-10-30 07:56:00,
2013-10-30 04:01:00,35.8,29.2,30.28,NNW,337,0.0,0.0,77,0.00,,,0.00,WUHU21623XXSP,2013-10-30 08:01:00,
2013-10-30 04:06:00,35.8,29.2,30.27,NNW,337,0.0,0.0,77,0.00,,,0.00,WUHU21623XXSP,2013-10-30 08:06:00,
2013-10-30 04:11:00,35.8,29.2,30.27,North,0,0.0,0.0,77,0.00,,,0.00,WUHU21623XXSP,2013-10-30 08:11:00,
2013-10-30 04:16:00,36.0,29.4,30.27,North,0,0.0,0.0,77,0.00,,,0.00,WUHU21623XXSP,2013-10-30 08:16:00,
2013-10-30 04:21:00,36.0,29.4,30.27,North,0,0.0,0.0,77,0.00,,,0.00,WUHU21623XXSP,2013-10-30 08:21:00,
2013-10-30 04:26:00,36.0,29.4,30.27,North,0,0.0,0.0,77,0.00,,,0.00,WUHU21623XXSP,2013-10-30 08:26:00,
2013-10-30 04:31:00,36.1,29.6,30.27,North,0,0.0,0.0,77,0.00,,,0.00,WUHU21623XXSP,2013-10-30 08:31:00,
2013-10-30 04:36:00,36.1,29.9,30.27,North,0,0.0,0.0,78,0.00,,,0.00,WUHU21623XXSP,2013-10-30 08:36:00,
2013-10-30 04:41:00,36.3,30.1,30.27,North,0,0.0,0.0,78,0.00,,,0.00,WUHU21623XXSP,2013-10-30 08:41:00,
2013-10-30 04:46:00,36.3,29.8,30.27,North,0,0.0,0.0,77,0.00,,,0.00,WUHU21623XXSP,2013-10-30 08:46:00,
2013-10-30 04:51:00,36.3,29.8,30.27,North,0,0.0,0.0,77,0.00,,,0.00,WUHU21623XXSP,2013-10-30 08:51:00,
2013-10-30 04:56:00,36.3,29.8,30.27,North,0,0.0,0.0,77,0.00,,,0.00,WUHU21623XXSP,2013-10-30 08:56:00,
2013-10-30 05:01:00,36.3,30.1,30.27,North,0,0.0,0.0,78,0.00,,,0.00,WUHU21623XXSP,2013-10-30 09:01:00,
2013-10-30 05:06:00,36.3,30.1,30.27,North,0,0.0,0.0,78,0.00,,,0.00,WUHU21623XXSP,2013-10-30 09:06:00,
2013-10-30 05:11:00,36.3,30.1,30.27,North,0,0.0,0.0,78,0.00,,,0.00,WUHU21623XXSP,2013-10-30 09:11:00,
2013-10-30 05:16:00,36.3,30.1,30.27,North,0,0.0,0.0,78,0.00,,,0.00,WUHU21623XXSP,2013-10-30 09:16:00,
2013-10-30 05:21:00,36.3,30.1,30.27,North,0,0.0,0.0,78,0.00,,,0.00,WUHU21623XXSP,2013-10-30 09:21:00,
2013-10-30 05:26:00,36.3,30.1,30.27,North,0,0.0,0.0,78,0.00,,,0.00,WUHU21623XXSP,2013-10-30 09:26:00,
2013-10-30 05:31:00,36.3,30.1,30.27,North,0,0.0,0.0,78,0.00,,,0.00,WUHU21623XXSP,2013-10-30 09:31:00,
2013-10-30 05:36:00,36.5,30.1,30.27,North,0,0.0,0.0,78,0.00,,,0.00,WUHU21623XXSP,2013-10-30 09:36:00,
2013-10-30 05:41:00,36.5,30.3,30.27,North,0,0.0,0.0,78,0.00,,,0.00,WUHU21623XXSP,2013-10-30 09:41:00,
2013-10-30 05:46:00,36.9,30.6,30.27,North,0,0.0,0.0,78,0.00,,,0.00,WUHU21623XXSP,2013-10-30 09:46:00,
2013-10-30 05:51:00,37.0,30.8,30.26,North,0,0.0,0.0,78,0.00,,,0.00,WUHU21623XXSP,2013-10-30 09:51:00,
2013-10-30 05:56:00,37.0,30.8,30.27,North,0,0.0,0.0,78,0.00,,,0.00,WUHU21623XXSP,2013-10-30 09:56:00,
2013-10-30 06:01:00,37.2,31.0,30.27,North,0,0.0,0.0,78,0.00,,,0.00,WUHU21623XXSP,2013-10-30 10:01:00,
2013-10-30 06:06:00,37.2,31.0,30.26,North,0,0.0,0.0,78,0.00,,,0.00,WUHU21623XXSP,2013-10-30 10:06:00,
2013-10-30 06:11:00,37.4,31.2,30.27,North,0,0.0,0.0,78,0.00,,,0.00,WUHU21623XXSP,2013-10-30 10:11:00,
2013-10-30 06:16:00,37.6,31.3,30.27,North,0,0.0,0.0,78,0.00,,,0.00,WUHU21623XXSP,2013-10-30 10:16:00,
2013-10-30 06:21:00,37.6,31.3,30.27,North,0,0.0,0.0,78,0.00,,,0.00,WUHU21623XXSP,2013-10-30 10:21:00,
2013-10-30 06:26:00,37.8,31.5,30.27,North,0,0.0,0.0,78,0.00,,,0.00,WUHU21623XXSP,2013-10-30 10:26:00,
2013-10-30 06:31:00,37.8,31.8,30.28,North,0,0.0,0.0,79,0.00,,,0.00,WUHU21623XXSP,2013-10-30 10:31:00,
2013-10-30 06:36:00,37.9,32.0,30.28,North,0,0.0,0.0,79,0.00,,,0.00,WUHU21623XXSP,2013-10-30 10:36:00,
2013-10-30 06:41:00,37.9,32.0,30.28,North,0,0.0,0.0,79,0.00,,,0.00,WUHU21623XXSP,2013-10-30 10:41:00,
2013-10-30 06:46:00,38.1,32.2,30.28,North,0,0.0,0.0,79,0.00,,,0.00,WUHU21623XXSP,2013-10-30 10:46:00,
2013-10-30 06:51:00,38.1,32.2,30.28,North,0,0.0,0.0,79,0.00,,,0.00,WUHU21623XXSP,2013-10-30 10:51:00,
2013-10-30 06:56:00,38.1,32.2,30.28,North,0,0.0,0.0,79,0.00,,,0.00,WUHU21623XXSP,2013-10-30 10:56:00,
2013-10-30 07:01:00,38.3,32.4,30.27,North,0,0.0,0.0,79,0.00,,,0.00,WUHU21623XXSP,2013-10-30 11:01:00,
2013-10-30 07:06:00,38.3,32.4,30.27,North,0,0.0,0.0,79,0.00,,,0.00,WUHU21623XXSP,2013-10-30 11:06:00,
2013-10-30 07:11:00,38.5,32.6,30.27,North,0,0.0,0.0,79,0.00,,,0.00,WUHU21623XXSP,2013-10-30 11:11:00,
2013-10-30 07:16:00,38.5,32.6,30.26,North,0,0.0,0.0,79,0.00,,,0.00,WUHU21623XXSP,2013-10-30 11:16:00,
2013-10-30 07:21:00,38.5,32.6,30.27,NNW,337,0.0,0.0,79,0.00,,,0.00,WUHU21623XXSP,2013-10-30 11:21:00,
2013-10-30 07:26:00,38.8,32.9,30.27,NNW,337,0.0,0.0,79,0.00,,,0.00,WUHU21623XXSP,2013-10-30 11:26:00,
2013-10-30 07:31:00,39.0,33.1,30.27,NNW,337,0.0,0.0,79,0.00,,,0.00,WUHU21623XXSP,2013-10-30 11:31:00,
2013-10-30 07:36:00,39.0,33.1,30.27,NNW,337,0.0,0.0,79,0.00,,,0.00,WUHU21623XXSP,2013-10-30 11:36:00,
2013-10-30 07:41:00,39.2,33.3,30.27,NNW,337,0.0,0.0,79,0.00,,,0.00,WUHU21623XXSP,2013-10-30 11:41:00,
2013-10-30 07:46:00,39.4,33.4,30.27,NNW,337,0.0,0.0,79,0.00,,,0.00,WUHU21623XXSP,2013-10-30 11:46:00,
2013-10-30 07:51:00,39.4,33.4,30.27,NNW,337,0.0,0.0,79,0.00,,,0.00,WUHU21623XXSP,2013-10-30 11:51:00,
2013-10-30 07:56:00,39.6,33.6,30.27,NNW,337,0.0,0.0,79,0.00,,,0.00,WUHU21623XXSP,2013-10-30 11:56:00,
2013-10-30 08:01:00,39.7,34.1,30.27,NNW,337,0.0,0.0,80,0.00,,,0.00,WUHU21623XXSP,2013-10-30 12:01:00,
2013-10-30 08:06:00,39.9,34.3,30.28,NNW,337,0.0,0.0,80,0.00,,,0.00,WUHU21623XXSP,2013-10-30 12:06:00,
2013-10-30 08:11:00,40.1,34.4,30.27,NNW,337,0.0,0.0,80,0.00,,,0.00,WUHU21623XXSP,2013-10-30 12:11:00,
2013-10-30 08:16:00,40.5,34.8,30.27,NNW,337,0.0,0.0,80,0.00,,,0.00,WUHU21623XXSP,2013-10-30 12:16:00,
2013-10-30 08:21:00,40.6,34.9,30.27,NNW,337,0.0,0.0,80,0.00,,,0.00,WUHU21623XXSP,2013-10-30 12:21:00,
2013-10-30 08:26:00,40.8,35.1,30.27,NNW,337,0.0,0.0,80,0.00,,,0.00,WUHU21623XXSP,2013-10-30 12:26:00,
2013-10-30 08:31:00,41.4,35.6,30.27,NNW,337,0.0,0.0,80,0.00,,,0.00,WUHU21623XXSP,2013-10-30 12:31:00,
2013-10-30 08:36:00,41.5,36.1,30.28,NNW,337,0.0,0.0,81,0.00,,,0.00,WUHU21623XXSP,2013-10-30 12:36:00,
2013-10-30 08:41:00,41.9,36.4,30.28,WNW,292,0.0,0.0,81,0.00,,,0.00,WUHU21623XXSP,2013-10-30 12:41:00,
2013-10-30 08:46:00,42.4,37.0,30.27,South,180,0.0,0.0,81,0.00,,,0.00,WUHU21623XXSP,2013-10-30 12:46:00,
2013-10-30 08:51:00,42.4,37.0,30.27,SSE,157,0.0,0.0,81,0.00,,,0.00,WUHU21623XXSP,2013-10-30 12:51:00,
2013-10-30 08:56:00,42.6,37.2,30.28,SSE,157,0.0,0.0,81,0.00,,,0.00,WUHU21623XXSP,2013-10-30 12:56:00,
2013-10-30 09:01:00,43.0,37.5,30.28,NNW,337,0.0,0.0,81,0.00,,,0.00,WUHU21623XXSP,2013-10-30 13:01:00,
2013-10-30 09:06:00,43.3,37.9,30.28,NNE,22,0.0,0.0,81,0.00,,,0.00,WUHU21623XXSP,2013-10-30 13:06:00,
2013-10-30 09:11:00,43.7,38.2,30.28,West,270,0.0,0.0,81,0.00,,,0.00,WUHU21623XXSP,2013-10-30 13:11:00,
2013-10-30 09:16:00,43.9,38.4,30.28,NNW,337,0.0,0.0,81,0.00,,,0.00,WUHU21623XXSP,2013-10-30 13:16:00,
2013-10-30 09:21:00,44.2,38.5,30.27,North,0,0.0,0.0,80,0.00,,,0.00,WUHU21623XXSP,2013-10-30 13:21:00,
2013-10-30 09:26:00,44.4,38.7,30.27,North,0,0.0,0.0,80,0.00,,,0.00,WUHU21623XXSP,2013-10-30 13:26:00,
2013-10-30 09:31:00,44.4,38.7,30.27,North,0,0.0,0.0,80,0.00,,,0.00,WUHU21623XXSP,2013-10-30 13:31:00,
2013-10-30 09:36:00,44.4,38.7,30.27,North,0,0.0,0.0,80,0.00,,,0.00,WUHU21623XXSP,2013-10-30 13:36:00,
2013-10-30 09:41:00,44.4,38.7,30.27,North,0,0.0,0.0,80,0.00,,,0.00,WUHU21623XXSP,2013-10-30 13:41:00,
2013-10-30 09:46:00,44.6,39.1,30.27,North,0,0.0,0.0,81,0.00,,,0.00,WUHU21623XXSP,2013-10-30 13:46:00,
2013-10-30 09:51:00,44.8,39.3,30.27,West,270,0.0,0.0,81,0.00,,,0.00,WUHU21623XXSP,2013-10-30 13:51:00,
2013-10-30 09:56:00,45.0,39.5,30.27,West,270,0.0,0.0,81,0.00,,,0.00,WUHU21623XXSP,2013-10-30 13:56:00,
2013-10-30 10:01:00,45.0,39.5,30.27,WSW,247,0.0,0.0,81,0.00,,,0.00,WUHU21623XXSP,2013-10-30 14:01:00,
2013-10-30 10:06:00,45.1,39.7,30.27,WSW,247,0.0,0.0,81,0.00,,,0.00,WUHU21623XXSP,2013-10-30 14:06:00,
2013-10-30 10:11:00,45.1,39.7,30.27,WSW,247,0.0,0.0,81,0.00,,,0.00,WUHU21623XXSP,2013-10-30 14:11:00,
2013-10-30 10:16:00,45.0,39.5,30.27,WSW,247,0.0,0.0,81,0.00,,,0.00,WUHU21623XXSP,2013-10-30 14:16:00,
2013-10-30 10:21:00,45.0,39.5,30.27,WSW,247,0.0,0.0,81,0.00,,,0.00,WUHU21623XXSP,2013-10-30 14:21:00,
2013-10-30 10:26:00,45.0,39.5,30.27,SSW,202,0.0,0.0,81,0.00,,,0.00,WUHU21623XXSP,2013-10-30 14:26:00,
2013-10-30 10:31:00,45.0,39.5,30.27,South,180,0.0,0.0,81,0.00,,,0.00,WUHU21623XXSP,2013-10-30 14:31:00,
2013-10-30 10:36:00,45.1,39.7,30.27,South,180,0.0,0.0,81,0.00,,,0.00,WUHU21623XXSP,2013-10-30 14:36:00,
2013-10-30 10:41:00,45.1,39.7,30.27,SSE,157,0.0,0.0,81,0.00,,,0.00,WUHU21623XXSP,2013-10-30 14:41:00,
2013-10-30 10:46:00,45.1,39.7,30.26,SSE,157,0.0,0.0,81,0.00,,,0.00,WUHU21623XXSP,2013-10-30 14:46:00,
2013-10-30 10:51:00,45.1,39.7,30.26,SSE,157,0.0,0.0,81,0.00,,,0.00,WUHU21623XXSP,2013-10-30 14:51:00,
2013-10-30 10:56:00,45.3,39.9,30.27,SSE,157,0.0,0.0,81,0.00,,,0.00,WUHU21623XXSP,2013-10-30 14:56:00,
2013-10-30 11:01:00,45.3,40.2,30.27,SSE,157,0.0,0.0,82,0.00,,,0.00,WUHU21623XXSP,2013-10-30 15:01:00,
2013-10-30 11:06:00,45.5,40.4,30.26,SSE,157,0.0,0.0,82,0.00,,,0.00,WUHU21623XXSP,2013-10-30 15:06:00,
2013-10-30 11:11:00,45.7,40.5,30.27,SSE,157,0.0,0.0,82,0.00,,,0.00,WUHU21623XXSP,2013-10-30 15:11:00,
2013-10-30 11:16:00,45.9,40.5,30.27,South,180,0.0,0.0,82,0.00,,,0.00,WUHU21623XXSP,2013-10-30 15:16:00,
2013-10-30 11:21:00,46.0,40.9,30.27,South,180,0.0,0.0,82,0.00,,,0.00,WUHU21623XXSP,2013-10-30 15:21:00,
2013-10-30 11:26:00,46.2,41.1,30.26,South,180,0.0,0.0,82,0.00,,,0.00,WUHU21623XXSP,2013-10-30 15:26:00,
2013-10-30 11:31:00,46.2,41.1,30.27,SSE,157,0.0,0.0,82,0.00,,,0.00,WUHU21623XXSP,2013-10-30 15:31:00,
2013-10-30 11:36:00,46.2,41.1,30.27,SSE,157,0.0,0.0,82,0.00,,,0.00,WUHU21623XXSP,2013-10-30 15:36:00,
2013-10-30 11:41:00,46.2,41.1,30.27,SSE,157,0.0,0.0,82,0.00,,,0.00,WUHU21623XXSP,2013-10-30 15:41:00,
2013-10-30 11:46:00,46.2,41.1,30.26,SSE,157,0.0,0.0,82,0.00,,,0.00,WUHU21623XXSP,2013-10-30 15:46:00,
2013-10-30 11:51:00,46.2,41.1,30.26,SSE,157,0.0,0.0,82,0.00,,,0.00,WUHU21623XXSP,2013-10-30 15:51:00,
2013-10-30 11:56:00,46.0,40.9,30.26,SSE,157,0.0,0.0,82,0.00,,,0.00,WUHU21623XXSP,2013-10-30 15:56:00,
2013-10-30 12:01:00,46.0,40.9,30.26,SSE,157,0.0,0.0,82,0.00,,,0.00,WUHU21623XXSP,2013-10-30 16:01:00,
2013-10-30 12:06:00,46.2,41.1,30.26,SSE,157,0.0,0.0,82,0.00,,,0.00,WUHU21623XXSP,2013-10-30 16:06:00,
2013-10-30 12:11:00,46.2,41.1,30.25,SSE,157,0.0,0.0,82,0.00,,,0.00,WUHU21623XXSP,2013-10-30 16:11:00,
2013-10-30 12:16:00,46.2,41.1,30.25,SSE,157,0.0,0.0,82,0.00,,,0.00,WUHU21623XXSP,2013-10-30 16:16:00,
2013-10-30 12:21:00,46.2,41.1,30.25,SSE,157,0.0,0.0,82,0.00,,,0.00,WUHU21623XXSP,2013-10-30 16:21:00,
2013-10-30 12:26:00,46.2,41.1,30.25,SSE,157,0.0,0.0,82,0.00,,,0.00,WUHU21623XXSP,2013-10-30 16:26:00,
2013-10-30 12:31:00,46.2,41.1,30.25,SSE,157,0.0,0.0,82,0.00,,,0.00,WUHU21623XXSP,2013-10-30 16:31:00,
2013-10-30 12:36:00,46.2,41.4,30.25,SSE,157,0.0,0.0,83,0.00,,,0.00,WUHU21623XXSP,2013-10-30 16:36:00,
2013-10-30 12:41:00,46.4,41.6,30.24,SSE,157,0.0,0.0,83,0.00,,,0.00,WUHU21623XXSP,2013-10-30 16:41:00,
2013-10-30 12:46:00,46.6,41.7,30.24,SSE,157,0.0,0.0,83,0.00,,,0.00,WUHU21623XXSP,2013-10-30 16:46:00,
2013-10-30 12:51:00,46.6,41.7,30.23,SSE,157,0.0,0.0,83,0.00,,,0.00,WUHU21623XXSP,2013-10-30 16:51:00,
2013-10-30 12:56:00,46.6,41.7,30.23,SSE,157,0.0,0.0,83,0.00,,,0.00,WUHU21623XXSP,2013-10-30 16:56:00,
2013-10-30 13:01:00,46.8,41.9,30.23,SSE,157,0.0,0.0,83,0.00,,,0.00,WUHU21623XXSP,2013-10-30 17:01:00,
2013-10-30 13:06:00,46.6,41.4,30.23,SSE,157,0.0,0.0,82,0.00,,,0.00,WUHU21623XXSP,2013-10-30 17:06:00,
2013-10-30 13:11:00,46.8,41.6,30.22,SSE,157,0.0,0.0,82,0.00,,,0.00,WUHU21623XXSP,2013-10-30 17:11:00,
2013-10-30 13:16:00,46.8,41.9,30.22,South,180,0.0,0.0,83,0.00,,,0.00,WUHU21623XXSP,2013-10-30 17:16:00,
2013-10-30 13:21:00,46.9,42.0,30.22,SE,135,0.0,0.0,83,0.00,,,0.00,WUHU21623XXSP,2013-10-30 17:21:00,
2013-10-30 13:26:00,47.3,42.4,30.21,SE,135,0.0,0.0,83,0.00,,,0.00,WUHU21623XXSP,2013-10-30 17:26:00,
2013-10-30 13:31:00,47.5,42.5,30.21,South,180,0.0,0.0,83,0.00,,,0.00,WUHU21623XXSP,2013-10-30 17:31:00,
2013-10-30 13:36:00,47.7,42.7,30.21,SSE,157,0.0,0.0,83,0.00,,,0.00,WUHU21623XXSP,2013-10-30 17:36:00,
2013-10-30 13:41:00,48.0,42.7,30.21,SSE,157,0.0,0.0,82,0.00,,,0.00,WUHU21623XXSP,2013-10-30 17:41:00,
2013-10-30 13:46:00,48.0,42.7,30.20,SSE,157,0.0,0.0,82,0.00,,,0.00,WUHU21623XXSP,2013-10-30 17:46:00,
2013-10-30 13:51:00,48.4,43.1,30.20,SSE,157,0.0,0.0,82,0.00,,,0.00,WUHU21623XXSP,2013-10-30 17:51:00,
2013-10-30 13:56:00,48.4,42.7,30.21,SSE,157,0.0,0.0,81,0.00,,,0.00,WUHU21623XXSP,2013-10-30 17:56:00,
2013-10-30 14:01:00,48.6,42.9,30.21,SSE,157,0.0,0.0,81,0.00,,,0.00,WUHU21623XXSP,2013-10-30 18:01:00,
2013-10-30 14:06:00,48.7,43.1,30.20,SE,135,0.0,0.0,81,0.00,,,0.00,WUHU21623XXSP,2013-10-30 18:06:00,
2013-10-30 14:11:00,49.1,43.5,30.20,SE,135,0.0,0.0,81,0.00,,,0.00,WUHU21623XXSP,2013-10-30 18:11:00,
2013-10-30 14:16:00,49.6,44.0,30.20,SSE,157,0.0,0.0,81,0.00,,,0.00,WUHU21623XXSP,2013-10-30 18:16:00,
2013-10-30 14:21:00,49.8,44.2,30.20,SSE,157,0.0,0.0,81,0.00,,,0.00,WUHU21623XXSP,2013-10-30 18:21:00,
2013-10-30 14:26:00,50.0,44.1,30.19,SSE,157,0.0,0.0,80,0.00,,,0.00,WUHU21623XXSP,2013-10-30 18:26:00,
2013-10-30 14:31:00,50.2,43.9,30.20,SSE,157,0.0,0.0,79,0.00,,,0.00,WUHU21623XXSP,2013-10-30 18:31:00,
2013-10-30 14:36:00,50.2,43.6,30.19,SSE,157,0.0,0.0,78,0.00,,,0.00,WUHU21623XXSP,2013-10-30 18:36:00,
2013-10-30 14:41:00,50.2,43.6,30.19,SSE,157,0.0,0.0,78,0.00,,,0.00,WUHU21623XXSP,2013-10-30 18:41:00,
2013-10-30 14:46:00,50.4,43.7,30.19,SSE,157,0.0,0.0,78,0.00,,,0.00,WUHU21623XXSP,2013-10-30 18:46:00,
2013-10-30 14:51:00,50.5,43.9,30.19,South,180,0.0,0.0,78,0.00,,,0.00,WUHU21623XXSP,2013-10-30 18:51:00,
2013-10-30 14:56:00,50.7,44.1,30.18,NNW,337,0.0,0.0,78,0.00,,,0.00,WUHU21623XXSP,2013-10-30 18:56:00,
2013-10-30 15:01:00,51.1,44.5,30.18,SE,135,0.0,0.0,78,0.00,,,0.00,WUHU21623XXSP,2013-10-30 19:01:00,
2013-10-30 15:06:00,51.4,44.6,30.18,SE,135,0.0,0.0,78,0.00,,,0.00,WUHU21623XXSP,2013-10-30 19:06:00,
2013-10-30 15:11:00,52.0,45.0,30.18,NNE,22,0.0,0.0,77,0.00,,,0.00,WUHU21623XXSP,2013-10-30 19:11:00,
2013-10-30 15:16:00,52.3,45.2,30.18,NE,45,0.0,0.0,77,0.00,,,0.00,WUHU21623XXSP,2013-10-30 19:16:00,
2013-10-30 15:21:00,52.3,45.0,30.18,South,180,0.0,0.0,76,0.00,,,0.00,WUHU21623XXSP,2013-10-30 19:21:00,
2013-10-30 15:26:00,52.5,45.2,30.18,NNE,22,0.0,0.0,76,0.00,,,0.00,WUHU21623XXSP,2013-10-30 19:26:00,
2013-10-30 15:31:00,52.9,45.5,30.18,NE,45,0.0,0.0,76,0.00,,,0.00,WUHU21623XXSP,2013-10-30 19:31:00,
2013-10-30 15:36:00,52.9,45.5,30.18,SSE,157,0.0,0.0,76,0.00,,,0.00,WUHU21623XXSP,2013-10-30 19:36:00,
2013-10-30 15:41:00,53.2,45.5,30.18,NNE,22,1.6,1.6,75,0.00,,,0.00,WUHU21623XXSP,2013-10-30 19:41:00,
2013-10-30 15:46:00,53.1,45.3,30.18,NNE,22,0.0,1.6,75,0.00,,,0.00,WUHU21623XXSP,2013-10-30 19:46:00,
2013-10-30 15:51:00,52.9,44.8,30.18,ESE,112,0.0,0.0,74,0.00,,,0.00,WUHU21623XXSP,2013-10-30 19:51:00,
2013-10-30 15:56:00,52.9,44.8,30.18,NNW,337,0.0,0.0,74,0.00,,,0.00,WUHU21623XXSP,2013-10-30 19:56:00,
2013-10-30 16:01:00,52.9,44.8,30.18,NNW,337,0.0,0.0,74,0.00,,,0.00,WUHU21623XXSP,2013-10-30 20:01:00,
2013-10-30 16:06:00,52.9,44.8,30.17,SSE,157,0.0,0.0,74,0.00,,,0.00,WUHU21623XXSP,2013-10-30 20:06:00,
2013-10-30 16:11:00,52.9,45.2,30.17,SE,135,0.0,0.0,75,0.00,,,0.00,WUHU21623XXSP,2013-10-30 20:11:00,
2013-10-30 16:16:00,52.9,44.8,30.17,SE,135,0.0,0.0,74,0.00,,,0.00,WUHU21623XXSP,2013-10-30 20:16:00,
2013-10-30 16:21:00,52.9,44.8,30.17,ESE,112,0.0,0.0,74,0.00,,,0.00,WUHU21623XXSP,2013-10-30 20:21:00,
2013-10-30 16:26:00,53.1,45.3,30.17,SSE,157,0.0,0.0,75,0.00,,,0.00,WUHU21623XXSP,2013-10-30 20:26:00,
2013-10-30 16:31:00,53.1,45.0,30.17,SSE,157,0.0,0.0,74,0.00,,,0.00,WUHU21623XXSP,2013-10-30 20:31:00,
2013-10-30 16:36:00,52.9,44.8,30.17,SSE,157,0.0,0.0,74,0.00,,,0.00,WUHU21623XXSP,2013-10-30 20:36:00,
2013-10-30 16:41:00,52.7,44.8,30.17,South,180,0.0,0.0,74,0.00,,,0.00,WUHU21623XXSP,2013-10-30 20:41:00,
2013-10-30 16:46:00,52.5,44.8,30.17,South,180,0.0,0.0,75,0.00,,,0.00,WUHU21623XXSP,2013-10-30 20:46:00,
2013-10-30 16:51:00,52.5,44.8,30.17,South,180,0.0,0.0,75,0.00,,,0.00,WUHU21623XXSP,2013-10-30 20:51:00,
2013-10-30 16:56:00,52.3,44.7,30.17,South,180,0.0,0.0,75,0.00,,,0.00,WUHU21623XXSP,2013-10-30 20:56:00,
2013-10-30 17:01:00,52.3,44.7,30.17,South,180,0.0,0.0,75,0.00,,,0.00,WUHU21623XXSP,2013-10-30 21:01:00,
2013-10-30 17:06:00,52.3,44.7,30.17,South,180,0.0,0.0,75,0.00,,,0.00,WUHU21623XXSP,2013-10-30 21:06:00,
2013-10-30 17:11:00,52.2,44.5,30.17,South,180,0.0,0.0,75,0.00,,,0.00,WUHU21623XXSP,2013-10-30 21:11:00,
2013-10-30 17:16:00,52.0,44.3,30.18,SW,225,0.0,0.0,75,0.00,,,0.00,WUHU21623XXSP,2013-10-30 21:16:00,
2013-10-30 17:21:00,51.6,44.3,30.17,WSW,247,0.0,0.0,76,0.00,,,0.00,WUHU21623XXSP,2013-10-30 21:21:00,
2013-10-30 17:26:00,51.4,44.1,30.17,WSW,247,0.0,0.0,76,0.00,,,0.00,WUHU21623XXSP,2013-10-30 21:26:00,
2013-10-30 17:31:00,51.1,43.8,30.17,WSW,247,0.0,0.0,76,0.00,,,0.00,WUHU21623XXSP,2013-10-30 21:31:00,
2013-10-30 17:36:00,50.7,43.4,30.17,WSW,247,0.0,0.0,76,0.00,,,0.00,WUHU21623XXSP,2013-10-30 21:36:00,
2013-10-30 17:41:00,50.4,43.1,30.18,WSW,247,0.0,0.0,76,0.00,,,0.00,WUHU21623XXSP,2013-10-30 21:41:00,
2013-10-30 17:46:00,49.8,42.5,30.18,WSW,247,0.0,0.0,76,0.00,,,0.00,WUHU21623XXSP,2013-10-30 21:46:00,
2013-10-30 17:51:00,49.6,42.7,30.17,WSW,247,0.0,0.0,77,0.00,,,0.00,WUHU21623XXSP,2013-10-30 21:51:00,
2013-10-30 17:56:00,49.5,42.5,30.17,WSW,247,0.0,0.0,77,0.00,,,0.00,WUHU21623XXSP,2013-10-30 21:56:00,
2013-10-30 18:01:00,48.9,42.0,30.16,NW,315,0.0,0.0,77,0.00,,,0.00,WUHU21623XXSP,2013-10-30 22:01:00,
2013-10-30 18:06:00,48.7,41.8,30.18,NW,315,0.0,0.0,77,0.00,,,0.00,WUHU21623XXSP,2013-10-30 22:06:00,
2013-10-30 18:11:00,48.4,41.4,30.18,NW,315,0.0,0.0,77,0.00,,,0.00,WUHU21623XXSP,2013-10-30 22:11:00,
2013-10-30 18:16:00,48.0,41.1,30.18,NW,315,0.0,0.0,77,0.00,,,0.00,WUHU21623XXSP,2013-10-30 22:16:00,
2013-10-30 18:21:00,47.8,41.3,30.18,NW,315,0.0,0.0,78,0.00,,,0.00,WUHU21623XXSP,2013-10-30 22:21:00,
2013-10-30 18:26:00,47.3,40.8,30.18,NW,315,0.0,0.0,78,0.00,,,0.00,WUHU21623XXSP,2013-10-30 22:26:00,
2013-10-30 18:31:00,47.1,40.6,30.19,NW,315,0.0,0.0,78,0.00,,,0.00,WUHU21623XXSP,2013-10-30 22:31:00,
2013-10-30 18:36:00,46.9,40.4,30.19,NW,315,0.0,0.0,78,0.00,,,0.00,WUHU21623XXSP,2013-10-30 22:36:00,
2013-10-30 18:41:00,46.6,40.1,30.19,NW,315,0.0,0.0,78,0.00,,,0.00,WUHU21623XXSP,2013-10-30 22:41:00,
2013-10-30 18:46:00,46.4,40.0,30.19,NW,315,0.0,0.0,78,0.00,,,0.00,WUHU21623XXSP,2013-10-30 22:46:00,
2013-10-30 18:51:00,46.2,40.1,30.19,NW,315,0.0,0.0,79,0.00,,,0.00,WUHU21623XXSP,2013-10-30 22:51:00,
2013-10-30 18:56:00,45.9,39.8,30.19,NW,315,0.0,0.0,79,0.00,,,0.00,WUHU21623XXSP,2013-10-30 22:56:00,
2013-10-30 19:01:00,45.7,39.6,30.19,NW,315,0.0,0.0,79,0.00,,,0.00,WUHU21623XXSP,2013-10-30 23:01:00,
2013-10-30 19:06:00,45.5,39.4,30.19,NW,315,0.0,0.0,79,0.00,,,0.00,WUHU21623XXSP,2013-10-30 23:06:00,
2013-10-30 19:11:00,45.1,39.0,30.19,NW,315,0.0,0.0,79,0.00,,,0.00,WUHU21623XXSP,2013-10-30 23:11:00,
2013-10-30 19:16:00,45.1,39.0,30.20,NW,315,0.0,0.0,79,0.00,,,0.00,WUHU21623XXSP,2013-10-30 23:16:00,
2013-10-30 19:21:00,44.8,38.7,30.20,NW,315,0.0,0.0,79,0.00,,,0.00,WUHU21623XXSP,2013-10-30 23:21:00,
2013-10-30 19:26:00,44.4,38.3,30.20,NW,315,0.0,0.0,79,0.00,,,0.00,WUHU21623XXSP,2013-10-30 23:26:00,
2013-10-30 19:31:00,44.2,38.5,30.20,NW,315,0.0,0.0,80,0.00,,,0.00,WUHU21623XXSP,2013-10-30 23:31:00,
2013-10-30 19:36:00,44.1,38.5,30.20,NW,315,0.0,0.0,80,0.00,,,0.00,WUHU21623XXSP,2013-10-30 23:36:00,
2013-10-30 19:41:00,43.9,38.3,30.20,NW,315,0.0,0.0,80,0.00,,,0.00,WUHU21623XXSP,2013-10-30 23:41:00,
2013-10-30 19:46:00,43.9,38.1,30.20,NW,315,0.0,0.0,80,0.00,,,0.00,WUHU21623XXSP,2013-10-30 23:46:00,
2013-10-30 19:51:00,43.7,37.9,30.20,NW,315,0.0,0.0,80,0.00,,,0.00,WUHU21623XXSP,2013-10-30 23:51:00,
2013-10-30 19:56:00,43.5,37.8,30.20,NW,315,0.0,0.0,80,0.00,,,0.00,WUHU21623XXSP,2013-10-30 23:56:00,
2013-10-30 20:01:00,43.3,37.6,30.21,NW,315,0.0,0.0,80,0.00,,,0.00,WUHU21623XXSP,2013-10-31 00:01:00,
2013-10-30 20:06:00,43.2,37.4,30.20,NW,315,0.0,0.0,80,0.00,,,0.00,WUHU21623XXSP,2013-10-31 00:06:00,
2013-10-30 20:11:00,43.0,37.2,30.21,NW,315,0.0,0.0,80,0.00,,,0.00,WUHU21623XXSP,2013-10-31 00:11:00,
2013-10-30 20:16:00,42.8,37.0,30.21,NW,315,0.0,0.0,80,0.00,,,0.00,WUHU21623XXSP,2013-10-31 00:16:00,
2013-10-30 20:21:00,42.6,36.9,30.21,NW,315,0.0,0.0,80,0.00,,,0.00,WUHU21623XXSP,2013-10-31 00:21:00,
2013-10-30 20:26:00,42.4,36.7,30.21,NW,315,0.0,0.0,80,0.00,,,0.00,WUHU21623XXSP,2013-10-31 00:26:00,
2013-10-30 20:31:00,42.3,36.5,30.22,NW,315,0.0,0.0,80,0.00,,,0.00,WUHU21623XXSP,2013-10-31 00:31:00,
2013-10-30 20:36:00,42.1,36.6,30.22,NW,315,0.0,0.0,81,0.00,,,0.00,WUHU21623XXSP,2013-10-31 00:36:00,
2013-10-30 20:41:00,41.7,36.3,30.22,NW,315,0.0,0.0,81,0.00,,,0.00,WUHU21623XXSP,2013-10-31 00:41:00,
2013-10-30 20:46:00,41.5,36.1,30.21,NW,315,0.0,0.0,81,0.00,,,0.00,WUHU21623XXSP,2013-10-31 00:46:00,
2013-10-30 20:51:00,41.5,35.8,30.22,NW,315,0.0,0.0,80,0.00,,,0.00,WUHU21623XXSP,2013-10-31 00:51:00,
2013-10-30 20:56:00,41.5,35.8,30.21,NW,315,0.0,0.0,80,0.00,,,0.00,WUHU21623XXSP,2013-10-31 00:56:00,
2013-10-30 21:01:00,41.4,35.9,30.21,NW,315,0.0,0.0,81,0.00,,,0.00,WUHU21623XXSP,2013-10-31 01:01:00,
2013-10-30 21:06:00,41.2,35.9,30.21,NW,315,0.0,0.0,80,0.00,,,0.00,WUHU21623XXSP,2013-10-31 01:06:00,
2013-10-30 21:11:00,41.0,35.5,30.21,NW,315,0.0,0.0,81,0.00,,,0.00,WUHU21623XXSP,2013-10-31 01:11:00,
2013-10-30 21:16:00,40.8,35.4,30.22,NW,315,0.0,0.0,81,0.00,,,0.00,WUHU21623XXSP,2013-10-31 01:16:00,
2013-10-30 21:21:00,40.8,35.4,30.21,NW,315,0.0,0.0,81,0.00,,,0.00,WUHU21623XXSP,2013-10-31 01:21:00,
2013-10-30 21:26:00,40.6,35.2,30.21,NW,315,0.0,0.0,81,0.00,,,0.00,WUHU21623XXSP,2013-10-31 01:26:00,
2013-10-30 21:31:00,40.6,35.2,30.21,NW,315,0.0,0.0,81,0.00,,,0.00,WUHU21623XXSP,2013-10-31 01:31:00,
2013-10-30 21:36:00,40.6,35.2,30.21,NW,315,0.0,0.0,81,0.00,,,0.00,WUHU21623XXSP,2013-10-31 01:36:00,
2013-10-30 21:41:00,40.3,34.9,30.21,NW,315,0.0,0.0,81,0.00,,,0.00,WUHU21623XXSP,2013-10-31 01:41:00,
2013-10-30 21:46:00,40.3,34.9,30.21,NW,315,0.0,0.0,81,0.00,,,0.00,WUHU21623XXSP,2013-10-31 01:46:00,
2013-10-30 21:51:00,40.3,34.9,30.20,NW,315,0.0,0.0,81,0.00,,,0.00,WUHU21623XXSP,2013-10-31 01:51:00,
2013-10-30 21:56:00,40.1,34.7,30.20,NW,315,0.0,0.0,81,0.00,,,0.00,WUHU21623XXSP,2013-10-31 01:56:00,
2013-10-30 22:01:00,39.9,34.6,30.21,NW,315,0.0,0.0,81,0.00,,,0.00,WUHU21623XXSP,2013-10-31 02:01:00,
2013-10-30 22:06:00,39.9,34.6,30.21,NW,315,0.0,0.0,81,0.00,,,0.00,WUHU21623XXSP,2013-10-31 02:06:00,
2013-10-30 22:11:00,39.7,34.4,30.21,NW,315,0.0,0.0,81,0.00,,,0.00,WUHU21623XXSP,2013-10-31 02:11:00,
2013-10-30 22:16:00,39.7,34.7,30.21,NW,315,0.0,0.0,82,0.00,,,0.00,WUHU21623XXSP,2013-10-31 02:16:00,
2013-10-30 22:21:00,39.7,34.7,30.21,NW,315,0.0,0.0,82,0.00,,,0.00,WUHU21623XXSP,2013-10-31 02:21:00,
2013-10-30 22:26:00,39.6,34.5,30.21,NW,315,0.0,0.0,82,0.00,,,0.00,WUHU21623XXSP,2013-10-31 02:26:00,
2013-10-30 22:31:00,39.4,34.4,30.21,NW,315,0.0,0.0,82,0.00,,,0.00,WUHU21623XXSP,2013-10-31 02:31:00,
2013-10-30 22:36:00,39.4,34.4,30.22,NW,315,0.0,0.0,82,0.00,,,0.00,WUHU21623XXSP,2013-10-31 02:36:00,
2013-10-30 22:41:00,39.4,34.4,30.21,NW,315,0.0,0.0,82,0.00,,,0.00,WUHU21623XXSP,2013-10-31 02:41:00,
2013-10-30 22:46:00,39.4,34.4,30.21,NW,315,0.0,0.0,82,0.00,,,0.00,WUHU21623XXSP,2013-10-31 02:46:00,
2013-10-30 22:51:00,39.0,34.0,30.20,NW,315,0.0,0.0,82,0.00,,,0.00,WUHU21623XXSP,2013-10-31 02:51:00,
2013-10-30 22:56:00,39.0,34.0,30.21,NW,315,0.0,0.0,82,0.00,,,0.00,WUHU21623XXSP,2013-10-31 02:56:00,
2013-10-30 23:00:00,39.0,34.0,30.21,NW,315,0.0,0.0,82,0.00,,,0.00,WUHU21623XXSP,2013-10-31 03:00:00,
2013-10-30 23:05:00,39.0,34.0,30.21,NW,315,0.0,0.0,82,0.00,,,0.00,WUHU21623XXSP,2013-10-31 03:05:00,
2013-10-30 23:10:00,39.0,34.0,30.21,NW,315,0.0,0.0,82,0.00,,,0.00,WUHU21623XXSP,2013-10-31 03:10:00,
2013-10-30 23:15:00,38.8,33.8,30.21,NW,315,0.0,0.0,82,0.00,,,0.00,WUHU21623XXSP,2013-10-31 03:15:00,
2013-10-30 23:20:00,38.8,33.8,30.20,NW,315,0.0,0.0,82,0.00,,,0.00,WUHU21623XXSP,2013-10-31 03:20:00,
2013-10-30 23:25:00,38.8,33.8,30.20,NW,315,0.0,0.0,82,0.00,,,0.00,WUHU21623XXSP,2013-10-31 03:25:00,
2013-10-30 23:30:00,38.5,33.5,30.21,NW,315,0.0,0.0,82,0.00,,,0.00,WUHU21623XXSP,2013-10-31 03:30:00,
2013-10-30 23:35:00,38.5,33.5,30.21,NW,315,0.0,0.0,82,0.00,,,0.00,WUHU21623XXSP,2013-10-31 03:35:00,
2013-10-30 23:40:00,38.5,33.5,30.21,NW,315,0.0,0.0,82,0.00,,,0.00,WUHU21623XXSP,2013-10-31 03:40:00,
2013-10-30 23:45:00,38.3,33.3,30.21,NW,315,0.0,0.0,82,0.00,,,0.00,WUHU21623XXSP,2013-10-31 03:45:00,
2013-10-30 23:50:00,38.3,33.3,30.21,NW,315,0.0,0.0,82,0.00,,,0.00,WUHU21623XXSP,2013-10-31 03:50:00,
2013-10-30 23:55:00,38.1,33.1,30.21,NW,315,0.0,0.0,82,0.00,,,0.00,WUHU21623XXSP,2013-10-31 03:55:00,